KUOX/UOX METAR and TAF weather

Enter ICAO airport designator
Station Type Date Time Source
KUOX METAR 2020/10/20 17:35 UTC NOAA

KUOX 201735Z AUTO VRB04G12KT 9SM SCT027 26/19 A3014 RMK AO2 PWINO


Station Type Date Time Source
KUOX Decoded METAR 2020/10/20 17:35 UTC NOAA

Oxford, University-Oxford Airport, MS, United States (KUOX) 34-23-04N 089-32-08W
Oct 20, 2020 - 01:35 PM EDT / 2020.10.20 1735 UTC
Wind: Variable at 5 MPH (4 KT) gusting to 14 MPH (12 KT):0
Visibility: 9 mile(s):0
Sky conditions: partly cloudy
Temperature: 78 F (26 C)
Dew Point: 66 F (19 C)
Relative Humidity: 65%
Pressure (altimeter): 30.14 in. Hg (1020 hPa)
ob: KUOX 201735Z AUTO VRB04G12KT 9SM SCT027 26/19 A3014 RMK AO2 PWINO
cycle: 17

Station Type Date Time Source
KUOX TAF UTC NOAA

Error!

Example: see airport list